sensor_id;sensor_type;location;lat;lon;timestamp;P1;durP1;ratioP1;P2;durP2;ratioP2
77109;SDS011;66062;52.464;16.922;2023-05-07T00:00:33;16.15;;;8.32;;
77109;SDS011;66062;52.464;16.922;2023-05-07T00:03:01;13.00;;;8.25;;
77109;SDS011;66062;52.464;16.922;2023-05-07T00:05:27;9.43;;;7.25;;
77109;SDS011;66062;52.464;16.922;2023-05-07T00:07:52;13.52;;;7.57;;
77109;SDS011;66062;52.464;16.922;2023-05-07T00:10:18;13.82;;;7.65;;
77109;SDS011;66062;52.464;16.922;2023-05-07T00:12:45;13.50;;;8.32;;
77109;SDS011;66062;52.464;16.922;2023-05-07T00:15:11;11.27;;;7.30;;
77109;SDS011;66062;52.464;16.922;2023-05-07T00:17:36;13.30;;;7.78;;
77109;SDS011;66062;52.464;16.922;2023-05-07T00:20:02;11.85;;;7.70;;
77109;SDS011;66062;52.464;16.922;2023-05-07T00:22:29;13.35;;;8.30;;
77109;SDS011;66062;52.464;16.922;2023-05-07T00:24:57;16.13;;;7.78;;
77109;SDS011;66062;52.464;16.922;2023-05-07T00:27:24;12.50;;;8.07;;
77109;SDS011;66062;52.464;16.922;2023-05-07T00:29:50;12.48;;;8.38;;
77109;SDS011;66062;52.464;16.922;2023-05-07T00:32:15;18.13;;;8.65;;
77109;SDS011;66062;52.464;16.922;2023-05-07T00:34:41;14.00;;;8.82;;
77109;SDS011;66062;52.464;16.922;2023-05-07T00:37:07;17.25;;;9.18;;
77109;SDS011;66062;52.464;16.922;2023-05-07T00:41:59;18.85;;;8.90;;
77109;SDS011;66062;52.464;16.922;2023-05-07T00:44:25;17.63;;;8.52;;
77109;SDS011;66062;52.464;16.922;2023-05-07T00:46:51;13.65;;;9.15;;
77109;SDS011;66062;52.464;16.922;2023-05-07T00:49:18;16.38;;;10.07;;
77109;SDS011;66062;52.464;16.922;2023-05-07T00:51:44;16.90;;;10.10;;
77109;SDS011;66062;52.464;16.922;2023-05-07T00:54:11;14.27;;;9.48;;
77109;SDS011;66062;52.464;16.922;2023-05-07T00:56:38;17.98;;;9.68;;
77109;SDS011;66062;52.464;16.922;2023-05-07T00:59:04;16.95;;;9.95;;
77109;SDS011;66062;52.464;16.922;2023-05-07T01:01:32;18.75;;;10.00;;
77109;SDS011;66062;52.464;16.922;2023-05-07T01:03:57;18.30;;;10.20;;
77109;SDS011;66062;52.464;16.922;2023-05-07T01:06:23;16.15;;;9.70;;
77109;SDS011;66062;52.464;16.922;2023-05-07T01:08:52;19.77;;;9.70;;
77109;SDS011;66062;52.464;16.922;2023-05-07T01:11:21;16.63;;;9.98;;
77109;SDS011;66062;52.464;16.922;2023-05-07T01:13:47;14.70;;;9.48;;
77109;SDS011;66062;52.464;16.922;2023-05-07T01:16:15;18.10;;;9.77;;
77109;SDS011;66062;52.464;16.922;2023-05-07T01:18:41;19.13;;;9.50;;
77109;SDS011;66062;52.464;16.922;2023-05-07T01:21:07;14.75;;;9.75;;
77109;SDS011;66062;52.464;16.922;2023-05-07T01:23:35;16.77;;;9.50;;
77109;SDS011;66062;52.464;16.922;2023-05-07T01:26:01;16.15;;;8.95;;
77109;SDS011;66062;52.464;16.922;2023-05-07T01:28:27;19.27;;;9.45;;
77109;SDS011;66062;52.464;16.922;2023-05-07T01:30:54;13.85;;;9.15;;
77109;SDS011;66062;52.464;16.922;2023-05-07T01:33:21;21.65;;;9.43;;
77109;SDS011;66062;52.464;16.922;2023-05-07T01:35:48;17.95;;;9.20;;
77109;SDS011;66062;52.464;16.922;2023-05-07T01:38:16;19.20;;;9.13;;
77109;SDS011;66062;52.464;16.922;2023-05-07T01:40:43;16.60;;;9.00;;
77109;SDS011;66062;52.464;16.922;2023-05-07T01:43:08;20.85;;;10.32;;
77109;SDS011;66062;52.464;16.922;2023-05-07T01:45:35;17.77;;;9.65;;
77109;SDS011;66062;52.464;16.922;2023-05-07T01:48:01;17.65;;;9.50;;
77109;SDS011;66062;52.464;16.922;2023-05-07T01:50:27;15.73;;;9.25;;
77109;SDS011;66062;52.464;16.922;2023-05-07T01:52:55;17.35;;;9.15;;
77109;SDS011;66062;52.464;16.922;2023-05-07T01:55:20;16.85;;;9.85;;
77109;SDS011;66062;52.464;16.922;2023-05-07T01:57:46;16.75;;;9.15;;
77109;SDS011;66062;52.464;16.922;2023-05-07T02:00:12;18.60;;;10.40;;
77109;SDS011;66062;52.464;16.922;2023-05-07T02:02:37;22.63;;;10.95;;
77109;SDS011;66062;52.464;16.922;2023-05-07T02:05:03;19.10;;;10.70;;
77109;SDS011;66062;52.464;16.922;2023-05-07T02:07:29;19.25;;;10.00;;
77109;SDS011;66062;52.464;16.922;2023-05-07T02:09:55;23.25;;;11.60;;
77109;SDS011;66062;52.464;16.922;2023-05-07T02:12:21;24.88;;;11.85;;
77109;SDS011;66062;52.464;16.922;2023-05-07T02:14:47;18.88;;;11.02;;
77109;SDS011;66062;52.464;16.922;2023-05-07T02:17:12;23.92;;;11.18;;
77109;SDS011;66062;52.464;16.922;2023-05-07T02:19:38;21.00;;;11.27;;
77109;SDS011;66062;52.464;16.922;2023-05-07T02:22:04;22.33;;;11.73;;
77109;SDS011;66062;52.464;16.922;2023-05-07T02:24:29;20.95;;;11.43;;
77109;SDS011;66062;52.464;16.922;2023-05-07T02:26:55;21.17;;;10.70;;
77109;SDS011;66062;52.464;16.922;2023-05-07T02:29:20;25.88;;;12.07;;
77109;SDS011;66062;52.464;16.922;2023-05-07T02:31:46;21.60;;;11.25;;
77109;SDS011;66062;52.464;16.922;2023-05-07T02:34:15;19.48;;;10.70;;
77109;SDS011;66062;52.464;16.922;2023-05-07T02:36:41;19.55;;;11.00;;
77109;SDS011;66062;52.464;16.922;2023-05-07T02:39:07;17.40;;;11.20;;
77109;SDS011;66062;52.464;16.922;2023-05-07T02:41:32;20.73;;;10.93;;
77109;SDS011;66062;52.464;16.922;2023-05-07T02:43:57;17.13;;;10.68;;
77109;SDS011;66062;52.464;16.922;2023-05-07T02:46:23;22.20;;;10.15;;
77109;SDS011;66062;52.464;16.922;2023-05-07T02:48:48;21.92;;;11.05;;
77109;SDS011;66062;52.464;16.922;2023-05-07T02:51:13;21.33;;;11.38;;
77109;SDS011;66062;52.464;16.922;2023-05-07T02:53:39;22.65;;;11.18;;
77109;SDS011;66062;52.464;16.922;2023-05-07T02:56:05;21.42;;;11.35;;
77109;SDS011;66062;52.464;16.922;2023-05-07T02:58:31;21.45;;;11.07;;
77109;SDS011;66062;52.464;16.922;2023-05-07T03:00:56;18.60;;;10.55;;
77109;SDS011;66062;52.464;16.922;2023-05-07T03:03:22;21.08;;;11.57;;
77109;SDS011;66062;52.464;16.922;2023-05-07T03:05:48;19.65;;;11.07;;
77109;SDS011;66062;52.464;16.922;2023-05-07T03:08:13;15.88;;;10.52;;
77109;SDS011;66062;52.464;16.922;2023-05-07T03:10:39;18.90;;;10.23;;
77109;SDS011;66062;52.464;16.922;2023-05-07T03:13:04;20.00;;;10.75;;
77109;SDS011;66062;52.464;16.922;2023-05-07T03:15:30;18.25;;;10.18;;
77109;SDS011;66062;52.464;16.922;2023-05-07T03:17:56;18.77;;;10.40;;
77109;SDS011;66062;52.464;16.922;2023-05-07T03:20:21;16.83;;;9.90;;
77109;SDS011;66062;52.464;16.922;2023-05-07T03:22:47;14.60;;;8.85;;
77109;SDS011;66062;52.464;16.922;2023-05-07T03:25:12;14.15;;;9.13;;
77109;SDS011;66062;52.464;16.922;2023-05-07T03:27:39;15.48;;;9.40;;
77109;SDS011;66062;52.464;16.922;2023-05-07T03:30:04;19.83;;;9.60;;
77109;SDS011;66062;52.464;16.922;2023-05-07T03:32:32;14.27;;;8.27;;
77109;SDS011;66062;52.464;16.922;2023-05-07T03:34:57;15.27;;;8.88;;
77109;SDS011;66062;52.464;16.922;2023-05-07T03:37:22;16.02;;;10.10;;
77109;SDS011;66062;52.464;16.922;2023-05-07T03:39:48;15.02;;;8.77;;
77109;SDS011;66062;52.464;16.922;2023-05-07T03:42:14;14.85;;;8.63;;
77109;SDS011;66062;52.464;16.922;2023-05-07T03:44:40;16.38;;;8.10;;
77109;SDS011;66062;52.464;16.922;2023-05-07T03:47:06;15.80;;;8.07;;
77109;SDS011;66062;52.464;16.922;2023-05-07T03:49:31;14.40;;;7.70;;
77109;SDS011;66062;52.464;16.922;2023-05-07T03:51:57;13.75;;;7.30;;
77109;SDS011;66062;52.464;16.922;2023-05-07T03:54:22;14.98;;;7.68;;
77109;SDS011;66062;52.464;16.922;2023-05-07T03:56:47;17.92;;;7.13;;
77109;SDS011;66062;52.464;16.922;2023-05-07T03:59:13;12.70;;;7.70;;
77109;SDS011;66062;52.464;16.922;2023-05-07T04:01:38;15.82;;;7.70;;
77109;SDS011;66062;52.464;16.922;2023-05-07T04:04:05;15.35;;;7.85;;
77109;SDS011;66062;52.464;16.922;2023-05-07T04:06:31;14.23;;;7.85;;
77109;SDS011;66062;52.464;16.922;2023-05-07T04:08:56;19.55;;;9.77;;
77109;SDS011;66062;52.464;16.922;2023-05-07T04:11:22;11.18;;;7.80;;
77109;SDS011;66062;52.464;16.922;2023-05-07T04:13:47;13.48;;;7.30;;
77109;SDS011;66062;52.464;16.922;2023-05-07T04:16:13;16.52;;;7.90;;
77109;SDS011;66062;52.464;16.922;2023-05-07T04:18:38;13.50;;;7.57;;
77109;SDS011;66062;52.464;16.922;2023-05-07T04:21:04;14.73;;;8.32;;
77109;SDS011;66062;52.464;16.922;2023-05-07T04:23:31;12.45;;;7.93;;
77109;SDS011;66062;52.464;16.922;2023-05-07T04:25:57;13.07;;;8.27;;
77109;SDS011;66062;52.464;16.922;2023-05-07T04:28:23;18.13;;;8.73;;
77109;SDS011;66062;52.464;16.922;2023-05-07T04:30:49;21.05;;;9.93;;
77109;SDS011;66062;52.464;16.922;2023-05-07T04:33:14;28.40;;;13.27;;
77109;SDS011;66062;52.464;16.922;2023-05-07T04:35:43;14.85;;;8.20;;
77109;SDS011;66062;52.464;16.922;2023-05-07T04:38:08;14.43;;;7.90;;
77109;SDS011;66062;52.464;16.922;2023-05-07T04:40:35;13.48;;;8.20;;
77109;SDS011;66062;52.464;16.922;2023-05-07T04:43:01;14.30;;;7.85;;
77109;SDS011;66062;52.464;16.922;2023-05-07T04:45:26;14.02;;;8.35;;
77109;SDS011;66062;52.464;16.922;2023-05-07T04:47:52;19.27;;;7.97;;
77109;SDS011;66062;52.464;16.922;2023-05-07T04:50:17;14.77;;;8.23;;
77109;SDS011;66062;52.464;16.922;2023-05-07T04:52:44;16.20;;;8.30;;
77109;SDS011;66062;52.464;16.922;2023-05-07T04:55:10;15.88;;;8.88;;
77109;SDS011;66062;52.464;16.922;2023-05-07T04:57:38;15.35;;;8.77;;
77109;SDS011;66062;52.464;16.922;2023-05-07T05:00:05;16.10;;;8.55;;
77109;SDS011;66062;52.464;16.922;2023-05-07T05:02:39;12.32;;;6.55;;
77109;SDS011;66062;52.464;16.922;2023-05-07T05:05:05;11.35;;;6.88;;
77109;SDS011;66062;52.464;16.922;2023-05-07T05:07:31;11.85;;;6.53;;
77109;SDS011;66062;52.464;16.922;2023-05-07T05:09:56;9.63;;;5.82;;
77109;SDS011;66062;52.464;16.922;2023-05-07T05:12:22;10.63;;;5.75;;
77109;SDS011;66062;52.464;16.922;2023-05-07T05:14:48;14.30;;;5.90;;
77109;SDS011;66062;52.464;16.922;2023-05-07T05:17:13;8.98;;;5.22;;
77109;SDS011;66062;52.464;16.922;2023-05-07T05:19:39;8.35;;;5.13;;
77109;SDS011;66062;52.464;16.922;2023-05-07T05:22:04;9.25;;;5.50;;
77109;SDS011;66062;52.464;16.922;2023-05-07T05:24:30;9.68;;;5.20;;
77109;SDS011;66062;52.464;16.922;2023-05-07T05:26:56;9.65;;;4.97;;
77109;SDS011;66062;52.464;16.922;2023-05-07T05:29:26;13.70;;;5.47;;
77109;SDS011;66062;52.464;16.922;2023-05-07T05:31:51;9.48;;;5.13;;
77109;SDS011;66062;52.464;16.922;2023-05-07T05:34:17;10.65;;;5.45;;
77109;SDS011;66062;52.464;16.922;2023-05-07T05:36:44;9.63;;;4.97;;
77109;SDS011;66062;52.464;16.922;2023-05-07T05:39:11;10.40;;;6.07;;
77109;SDS011;66062;52.464;16.922;2023-05-07T05:41:37;11.57;;;4.95;;
77109;SDS011;66062;52.464;16.922;2023-05-07T05:44:03;9.85;;;5.68;;
77109;SDS011;66062;52.464;16.922;2023-05-07T05:46:29;13.10;;;5.00;;
77109;SDS011;66062;52.464;16.922;2023-05-07T05:48:56;9.00;;;4.78;;
77109;SDS011;66062;52.464;16.922;2023-05-07T05:51:22;8.27;;;5.07;;
77109;SDS011;66062;52.464;16.922;2023-05-07T05:53:48;9.05;;;4.65;;
77109;SDS011;66062;52.464;16.922;2023-05-07T05:56:13;10.20;;;4.60;;
77109;SDS011;66062;52.464;16.922;2023-05-07T05:58:40;10.05;;;4.93;;
77109;SDS011;66062;52.464;16.922;2023-05-07T06:01:05;8.57;;;5.18;;
77109;SDS011;66062;52.464;16.922;2023-05-07T06:03:31;9.38;;;6.07;;
77109;SDS011;66062;52.464;16.922;2023-05-07T06:05:57;10.88;;;4.32;;
77109;SDS011;66062;52.464;16.922;2023-05-07T06:08:23;6.80;;;3.90;;
77109;SDS011;66062;52.464;16.922;2023-05-07T06:10:48;5.47;;;3.67;;
77109;SDS011;66062;52.464;16.922;2023-05-07T06:13:14;7.15;;;3.20;;
77109;SDS011;66062;52.464;16.922;2023-05-07T06:15:40;5.90;;;2.50;;
77109;SDS011;66062;52.464;16.922;2023-05-07T06:18:05;5.40;;;2.72;;
77109;SDS011;66062;52.464;16.922;2023-05-07T06:20:31;6.32;;;1.90;;
77109;SDS011;66062;52.464;16.922;2023-05-07T06:22:56;3.15;;;1.88;;
77109;SDS011;66062;52.464;16.922;2023-05-07T06:25:22;7.40;;;1.92;;
77109;SDS011;66062;52.464;16.922;2023-05-07T06:27:47;3.22;;;1.90;;
77109;SDS011;66062;52.464;16.922;2023-05-07T06:30:12;2.13;;;1.27;;
77109;SDS011;66062;52.464;16.922;2023-05-07T06:32:40;3.22;;;1.73;;
77109;SDS011;66062;52.464;16.922;2023-05-07T06:35:06;3.15;;;1.25;;
77109;SDS011;66062;52.464;16.922;2023-05-07T06:37:31;3.33;;;1.33;;
77109;SDS011;66062;52.464;16.922;2023-05-07T06:39:57;4.75;;;1.73;;
77109;SDS011;66062;52.464;16.922;2023-05-07T06:42:22;3.05;;;1.10;;
77109;SDS011;66062;52.464;16.922;2023-05-07T06:44:48;5.28;;;2.10;;
77109;SDS011;66062;52.464;16.922;2023-05-07T06:47:13;3.45;;;1.30;;
77109;SDS011;66062;52.464;16.922;2023-05-07T06:49:38;5.20;;;1.33;;
77109;SDS011;66062;52.464;16.922;2023-05-07T06:52:04;2.58;;;1.10;;
77109;SDS011;66062;52.464;16.922;2023-05-07T06:54:29;5.78;;;2.53;;
77109;SDS011;66062;52.464;16.922;2023-05-07T06:56:55;3.05;;;1.30;;
77109;SDS011;66062;52.464;16.922;2023-05-07T06:59:20;3.33;;;1.45;;
77109;SDS011;66062;52.464;16.922;2023-05-07T07:01:46;2.50;;;1.20;;
77109;SDS011;66062;52.464;16.922;2023-05-07T07:04:11;2.83;;;1.25;;
77109;SDS011;66062;52.464;16.922;2023-05-07T07:06:37;3.10;;;1.55;;
77109;SDS011;66062;52.464;16.922;2023-05-07T07:09:03;2.10;;;1.00;;
77109;SDS011;66062;52.464;16.922;2023-05-07T07:11:28;5.95;;;1.63;;
77109;SDS011;66062;52.464;16.922;2023-05-07T07:13:54;3.97;;;1.63;;
77109;SDS011;66062;52.464;16.922;2023-05-07T07:16:20;9.15;;;3.92;;
77109;SDS011;66062;52.464;16.922;2023-05-07T07:21:11;4.10;;;1.27;;
77109;SDS011;66062;52.464;16.922;2023-05-07T07:23:37;2.75;;;1.35;;
77109;SDS011;66062;52.464;16.922;2023-05-07T07:26:02;3.67;;;1.50;;
77109;SDS011;66062;52.464;16.922;2023-05-07T07:28:28;2.92;;;0.90;;
77109;SDS011;66062;52.464;16.922;2023-05-07T07:30:53;3.25;;;0.93;;
77109;SDS011;66062;52.464;16.922;2023-05-07T07:33:19;2.70;;;0.95;;
77109;SDS011;66062;52.464;16.922;2023-05-07T07:35:44;4.50;;;1.13;;
77109;SDS011;66062;52.464;16.922;2023-05-07T07:38:09;2.53;;;1.05;;
77109;SDS011;66062;52.464;16.922;2023-05-07T07:40:36;3.20;;;0.70;;
77109;SDS011;66062;52.464;16.922;2023-05-07T07:43:02;4.82;;;1.50;;
77109;SDS011;66062;52.464;16.922;2023-05-07T07:45:27;1.95;;;0.75;;
77109;SDS011;66062;52.464;16.922;2023-05-07T07:47:53;2.50;;;0.77;;
77109;SDS011;66062;52.464;16.922;2023-05-07T07:50:19;4.20;;;0.65;;
77109;SDS011;66062;52.464;16.922;2023-05-07T07:52:44;1.27;;;0.50;;
77109;SDS011;66062;52.464;16.922;2023-05-07T07:55:11;2.97;;;0.80;;
77109;SDS011;66062;52.464;16.922;2023-05-07T07:57:37;3.25;;;0.70;;
77109;SDS011;66062;52.464;16.922;2023-05-07T08:00:02;3.78;;;0.80;;
77109;SDS011;66062;52.464;16.922;2023-05-07T08:02:28;2.28;;;1.02;;
77109;SDS011;66062;52.464;16.922;2023-05-07T08:04:54;1.90;;;0.80;;
77109;SDS011;66062;52.464;16.922;2023-05-07T08:07:20;1.90;;;0.90;;
77109;SDS011;66062;52.464;16.922;2023-05-07T08:09:48;4.25;;;0.80;;
77109;SDS011;66062;52.464;16.922;2023-05-07T08:12:13;1.88;;;0.85;;
77109;SDS011;66062;52.464;16.922;2023-05-07T08:14:39;4.22;;;0.60;;
77109;SDS011;66062;52.464;16.922;2023-05-07T08:17:05;3.17;;;0.90;;
77109;SDS011;66062;52.464;16.922;2023-05-07T08:19:31;1.63;;;0.80;;
77109;SDS011;66062;52.464;16.922;2023-05-07T08:21:57;2.20;;;0.80;;
77109;SDS011;66062;52.464;16.922;2023-05-07T08:24:22;2.92;;;0.73;;
77109;SDS011;66062;52.464;16.922;2023-05-07T08:26:48;2.97;;;0.88;;
77109;SDS011;66062;52.464;16.922;2023-05-07T08:29:14;2.97;;;0.68;;
77109;SDS011;66062;52.464;16.922;2023-05-07T08:31:40;3.35;;;1.05;;
77109;SDS011;66062;52.464;16.922;2023-05-07T08:34:06;3.95;;;1.05;;
77109;SDS011;66062;52.464;16.922;2023-05-07T08:36:32;4.07;;;1.10;;
77109;SDS011;66062;52.464;16.922;2023-05-07T08:38:57;3.28;;;1.10;;
77109;SDS011;66062;52.464;16.922;2023-05-07T08:41:24;2.88;;;0.93;;
77109;SDS011;66062;52.464;16.922;2023-05-07T08:43:50;4.28;;;1.65;;
77109;SDS011;66062;52.464;16.922;2023-05-07T08:46:16;4.45;;;1.40;;
77109;SDS011;66062;52.464;16.922;2023-05-07T08:48:44;2.63;;;1.33;;
77109;SDS011;66062;52.464;16.922;2023-05-07T08:51:15;2.30;;;1.27;;
77109;SDS011;66062;52.464;16.922;2023-05-07T08:53:43;5.35;;;3.00;;
77109;SDS011;66062;52.464;16.922;2023-05-07T08:56:09;4.50;;;1.98;;
77109;SDS011;66062;52.464;16.922;2023-05-07T08:58:35;2.33;;;1.00;;
77109;SDS011;66062;52.464;16.922;2023-05-07T09:01:02;3.72;;;1.23;;
77109;SDS011;66062;52.464;16.922;2023-05-07T09:03:31;3.88;;;1.45;;
77109;SDS011;66062;52.464;16.922;2023-05-07T09:05:57;5.18;;;1.83;;
77109;SDS011;66062;52.464;16.922;2023-05-07T09:08:26;2.88;;;1.63;;
77109;SDS011;66062;52.464;16.922;2023-05-07T09:10:52;3.08;;;1.80;;
77109;SDS011;66062;52.464;16.922;2023-05-07T09:13:17;5.88;;;1.58;;
77109;SDS011;66062;52.464;16.922;2023-05-07T09:15:43;4.25;;;1.00;;
77109;SDS011;66062;52.464;16.922;2023-05-07T09:18:08;3.03;;;1.30;;
77109;SDS011;66062;52.464;16.922;2023-05-07T09:20:36;4.68;;;1.75;;
77109;SDS011;66062;52.464;16.922;2023-05-07T09:23:02;2.92;;;1.30;;
77109;SDS011;66062;52.464;16.922;2023-05-07T09:25:33;2.67;;;1.23;;
77109;SDS011;66062;52.464;16.922;2023-05-07T09:28:00;3.88;;;1.50;;
77109;SDS011;66062;52.464;16.922;2023-05-07T09:32:53;4.50;;;1.55;;
77109;SDS011;66062;52.464;16.922;2023-05-07T09:35:18;3.97;;;1.50;;
77109;SDS011;66062;52.464;16.922;2023-05-07T09:37:46;2.72;;;1.40;;
77109;SDS011;66062;52.464;16.922;2023-05-07T09:40:25;2.70;;;1.40;;
77109;SDS011;66062;52.464;16.922;2023-05-07T09:42:52;4.63;;;2.20;;
77109;SDS011;66062;52.464;16.922;2023-05-07T09:45:25;3.55;;;1.92;;
77109;SDS011;66062;52.464;16.922;2023-05-07T09:47:53;6.32;;;1.88;;
77109;SDS011;66062;52.464;16.922;2023-05-07T09:50:29;3.88;;;1.30;;
77109;SDS011;66062;52.464;16.922;2023-05-07T09:52:57;3.67;;;1.33;;
77109;SDS011;66062;52.464;16.922;2023-05-07T09:55:24;4.03;;;1.63;;
77109;SDS011;66062;52.464;16.922;2023-05-07T09:57:51;3.55;;;1.73;;
77109;SDS011;66062;52.464;16.922;2023-05-07T10:00:20;3.53;;;1.42;;
77109;SDS011;66062;52.464;16.922;2023-05-07T10:02:47;2.75;;;1.58;;
77109;SDS011;66062;52.464;16.922;2023-05-07T10:05:16;5.50;;;1.83;;
77109;SDS011;66062;52.464;16.922;2023-05-07T10:07:42;2.70;;;1.48;;
77109;SDS011;66062;52.464;16.922;2023-05-07T10:10:08;2.20;;;1.23;;
77109;SDS011;66062;52.464;16.922;2023-05-07T10:12:34;4.25;;;1.88;;
77109;SDS011;66062;52.464;16.922;2023-05-07T10:17:37;4.25;;;1.35;;
77109;SDS011;66062;52.464;16.922;2023-05-07T10:20:07;4.57;;;1.60;;
77109;SDS011;66062;52.464;16.922;2023-05-07T10:22:54;4.20;;;1.17;;
77109;SDS011;66062;52.464;16.922;2023-05-07T10:25:22;2.67;;;1.27;;
77109;SDS011;66062;52.464;16.922;2023-05-07T10:27:50;3.53;;;1.20;;
77109;SDS011;66062;52.464;16.922;2023-05-07T10:32:51;2.97;;;1.45;;
77109;SDS011;66062;52.464;16.922;2023-05-07T10:35:24;3.72;;;1.30;;
77109;SDS011;66062;52.464;16.922;2023-05-07T10:37:54;4.10;;;1.33;;
77109;SDS011;66062;52.464;16.922;2023-05-07T10:40:20;3.72;;;1.67;;
77109;SDS011;66062;52.464;16.922;2023-05-07T10:43:19;2.88;;;1.50;;
77109;SDS011;66062;52.464;16.922;2023-05-07T10:45:38;1.92;;;1.00;;
77109;SDS011;66062;52.464;16.922;2023-05-07T10:50:42;3.42;;;1.83;;
77109;SDS011;66062;52.464;16.922;2023-05-07T10:55:45;4.25;;;1.50;;
77109;SDS011;66062;52.464;16.922;2023-05-07T11:00:46;3.58;;;1.70;;
77109;SDS011;66062;52.464;16.922;2023-05-07T11:03:13;5.35;;;2.50;;
77109;SDS011;66062;52.464;16.922;2023-05-07T11:05:40;3.65;;;1.58;;
77109;SDS011;66062;52.464;16.922;2023-05-07T11:08:06;2.58;;;1.48;;
77109;SDS011;66062;52.464;16.922;2023-05-07T11:10:48;5.93;;;1.40;;
77109;SDS011;66062;52.464;16.922;2023-05-07T11:13:14;2.08;;;1.15;;
77109;SDS011;66062;52.464;16.922;2023-05-07T11:15:46;2.72;;;1.30;;
77109;SDS011;66062;52.464;16.922;2023-05-07T11:18:13;5.03;;;1.00;;
77109;SDS011;66062;52.464;16.922;2023-05-07T11:25:59;4.05;;;0.63;;
77109;SDS011;66062;52.464;16.922;2023-05-07T11:28:27;3.40;;;1.52;;
77109;SDS011;66062;52.464;16.922;2023-05-07T11:30:53;2.03;;;0.70;;
77109;SDS011;66062;52.464;16.922;2023-05-07T11:33:19;1.48;;;0.73;;
77109;SDS011;66062;52.464;16.922;2023-05-07T11:35:45;3.05;;;1.10;;
77109;SDS011;66062;52.464;16.922;2023-05-07T11:38:11;6.07;;;2.35;;
77109;SDS011;66062;52.464;16.922;2023-05-07T11:43:34;1.60;;;0.63;;
77109;SDS011;66062;52.464;16.922;2023-05-07T11:46:07;4.40;;;1.17;;
77109;SDS011;66062;52.464;16.922;2023-05-07T11:48:34;3.17;;;0.77;;
77109;SDS011;66062;52.464;16.922;2023-05-07T11:51:03;1.85;;;0.70;;
77109;SDS011;66062;52.464;16.922;2023-05-07T11:53:38;6.55;;;1.20;;
77109;SDS011;66062;52.464;16.922;2023-05-07T11:56:08;2.45;;;0.70;;
77109;SDS011;66062;52.464;16.922;2023-05-07T11:58:38;3.85;;;1.50;;
77109;SDS011;66062;52.464;16.922;2023-05-07T12:01:04;2.78;;;1.52;;
77109;SDS011;66062;52.464;16.922;2023-05-07T12:03:33;3.25;;;0.80;;
77109;SDS011;66062;52.464;16.922;2023-05-07T12:05:59;3.15;;;1.40;;
77109;SDS011;66062;52.464;16.922;2023-05-07T12:08:25;2.13;;;0.60;;
77109;SDS011;66062;52.464;16.922;2023-05-07T12:10:52;1.70;;;0.70;;
77109;SDS011;66062;52.464;16.922;2023-05-07T12:15:45;4.32;;;0.80;;
77109;SDS011;66062;52.464;16.922;2023-05-07T12:18:12;1.92;;;0.93;;
77109;SDS011;66062;52.464;16.922;2023-05-07T12:20:38;3.00;;;1.00;;
77109;SDS011;66062;52.464;16.922;2023-05-07T12:23:04;2.00;;;0.80;;
77109;SDS011;66062;52.464;16.922;2023-05-07T12:25:31;2.55;;;1.50;;
77109;SDS011;66062;52.464;16.922;2023-05-07T12:28:01;2.10;;;0.90;;
77109;SDS011;66062;52.464;16.922;2023-05-07T12:30:28;2.67;;;0.93;;
77109;SDS011;66062;52.464;16.922;2023-05-07T12:32:54;2.88;;;0.90;;
77109;SDS011;66062;52.464;16.922;2023-05-07T12:35:29;1.70;;;0.90;;
77109;SDS011;66062;52.464;16.922;2023-05-07T12:37:58;3.45;;;0.93;;
77109;SDS011;66062;52.464;16.922;2023-05-07T12:40:38;2.75;;;1.48;;
77109;SDS011;66062;52.464;16.922;2023-05-07T12:43:05;2.17;;;0.90;;
77109;SDS011;66062;52.464;16.922;2023-05-07T12:45:31;3.85;;;1.25;;
77109;SDS011;66062;52.464;16.922;2023-05-07T12:47:57;3.42;;;1.00;;
77109;SDS011;66062;52.464;16.922;2023-05-07T12:50:30;2.72;;;0.85;;
77109;SDS011;66062;52.464;16.922;2023-05-07T12:52:56;2.75;;;1.40;;
77109;SDS011;66062;52.464;16.922;2023-05-07T12:55:21;2.67;;;1.20;;
77109;SDS011;66062;52.464;16.922;2023-05-07T12:57:47;2.63;;;1.10;;
77109;SDS011;66062;52.464;16.922;2023-05-07T13:00:14;3.83;;;1.30;;
77109;SDS011;66062;52.464;16.922;2023-05-07T13:02:41;3.90;;;1.38;;
77109;SDS011;66062;52.464;16.922;2023-05-07T13:05:09;3.20;;;0.90;;
77109;SDS011;66062;52.464;16.922;2023-05-07T13:07:34;3.65;;;1.35;;
77109;SDS011;66062;52.464;16.922;2023-05-07T13:10:02;4.90;;;1.50;;
77109;SDS011;66062;52.464;16.922;2023-05-07T13:12:28;3.25;;;1.38;;
77109;SDS011;66062;52.464;16.922;2023-05-07T13:14:53;2.40;;;1.10;;
77109;SDS011;66062;52.464;16.922;2023-05-07T13:17:18;3.30;;;1.70;;
77109;SDS011;66062;52.464;16.922;2023-05-07T13:19:48;2.30;;;1.25;;
77109;SDS011;66062;52.464;16.922;2023-05-07T13:22:33;6.68;;;3.13;;
77109;SDS011;66062;52.464;16.922;2023-05-07T13:24:58;4.43;;;1.85;;
77109;SDS011;66062;52.464;16.922;2023-05-07T13:27:23;6.38;;;1.90;;
77109;SDS011;66062;52.464;16.922;2023-05-07T13:29:49;2.72;;;1.30;;
77109;SDS011;66062;52.464;16.922;2023-05-07T13:32:14;3.70;;;1.52;;
77109;SDS011;66062;52.464;16.922;2023-05-07T13:34:40;5.15;;;1.40;;
77109;SDS011;66062;52.464;16.922;2023-05-07T13:37:06;2.45;;;1.10;;
77109;SDS011;66062;52.464;16.922;2023-05-07T13:39:32;3.28;;;1.52;;
77109;SDS011;66062;52.464;16.922;2023-05-07T13:41:58;2.58;;;1.10;;
77109;SDS011;66062;52.464;16.922;2023-05-07T13:44:23;2.60;;;0.90;;
77109;SDS011;66062;52.464;16.922;2023-05-07T13:46:49;2.88;;;1.40;;
77109;SDS011;66062;52.464;16.922;2023-05-07T13:49:14;3.58;;;1.63;;
77109;SDS011;66062;52.464;16.922;2023-05-07T13:51:40;2.78;;;1.20;;
77109;SDS011;66062;52.464;16.922;2023-05-07T13:54:05;3.00;;;1.33;;
77109;SDS011;66062;52.464;16.922;2023-05-07T13:56:30;2.80;;;1.55;;
77109;SDS011;66062;52.464;16.922;2023-05-07T13:58:57;4.93;;;1.70;;
77109;SDS011;66062;52.464;16.922;2023-05-07T14:01:23;3.35;;;1.50;;
77109;SDS011;66062;52.464;16.922;2023-05-07T14:03:48;2.70;;;1.20;;
77109;SDS011;66062;52.464;16.922;2023-05-07T14:06:14;5.38;;;1.95;;
77109;SDS011;66062;52.464;16.922;2023-05-07T14:08:40;2.55;;;1.35;;
77109;SDS011;66062;52.464;16.922;2023-05-07T14:11:06;3.80;;;1.42;;
77109;SDS011;66062;52.464;16.922;2023-05-07T14:13:31;2.90;;;2.05;;
77109;SDS011;66062;52.464;16.922;2023-05-07T14:15:57;2.20;;;1.00;;
77109;SDS011;66062;52.464;16.922;2023-05-07T14:18:23;2.88;;;1.40;;
77109;SDS011;66062;52.464;16.922;2023-05-07T14:20:49;4.30;;;1.10;;
77109;SDS011;66062;52.464;16.922;2023-05-07T14:23:14;2.97;;;1.20;;
77109;SDS011;66062;52.464;16.922;2023-05-07T14:25:42;2.78;;;1.23;;
77109;SDS011;66062;52.464;16.922;2023-05-07T14:28:08;3.17;;;1.60;;
77109;SDS011;66062;52.464;16.922;2023-05-07T14:30:34;2.38;;;1.20;;
77109;SDS011;66062;52.464;16.922;2023-05-07T14:33:00;7.68;;;2.50;;
77109;SDS011;66062;52.464;16.922;2023-05-07T14:35:26;4.88;;;1.85;;
77109;SDS011;66062;52.464;16.922;2023-05-07T14:37:51;4.10;;;1.52;;
77109;SDS011;66062;52.464;16.922;2023-05-07T14:40:16;3.60;;;1.58;;
77109;SDS011;66062;52.464;16.922;2023-05-07T14:42:42;1.95;;;1.25;;
77109;SDS011;66062;52.464;16.922;2023-05-07T14:45:07;4.05;;;1.42;;
77109;SDS011;66062;52.464;16.922;2023-05-07T14:47:33;2.80;;;1.05;;
77109;SDS011;66062;52.464;16.922;2023-05-07T14:49:59;4.07;;;1.60;;
77109;SDS011;66062;52.464;16.922;2023-05-07T14:52:26;14.93;;;8.82;;
77109;SDS011;66062;52.464;16.922;2023-05-07T14:54:51;4.28;;;1.02;;